Time;durP1;ratioP1;P1;durP2;ratioP2;P2;SDS_P1;SDS_P2;PMS_P1;PMS_P2;Temp;Humidity;BMP_temperature;BMP_pressure;BME280_temperature;BME280_humidity;BME280_pressure;Samples;Min_cycle;Max_cycle;Signal;HPM_P1;HPM_P2
2023/06/14 00:01:07;;;;;;;4.70;2.88;;;18.30;86.00;;;;;;5091748;28;20067;-64
2023/06/14 00:03:33;;;;;;;8.07;3.10;;;18.30;86.00;;;;;;5091767;28;20044;-65
2023/06/14 00:05:59;;;;;;;6.57;2.97;;;18.30;85.90;;;;;;5091941;28;20059;-63
2023/06/14 00:08:26;;;;;;;4.13;2.80;;;18.20;85.80;;;;;;5092066;28;20047;-64
2023/06/14 00:10:52;;;;;;;6.53;2.90;;;18.20;85.90;;;;;;5091989;28;20281;-65
2023/06/14 00:13:18;;;;;;;5.50;3.13;;;18.10;85.80;;;;;;5091271;28;20361;-64
2023/06/14 00:15:46;;;;;;;4.70;2.90;;;18.10;86.20;;;;;;5091728;28;20126;-64
2023/06/14 00:18:13;;;;;;;5.82;2.58;;;18.00;86.20;;;;;;5092116;28;20051;-63
2023/06/14 00:20:39;;;;;;;5.63;3.25;;;18.00;86.10;;;;;;5091934;28;20052;-64
2023/06/14 00:23:05;;;;;;;4.90;2.50;;;18.00;86.20;;;;;;5092836;28;20066;-65
2023/06/14 00:25:32;;;;;;;6.20;3.08;;;17.90;86.10;;;;;;5096109;28;20055;-64
2023/06/14 00:27:58;;;;;;;4.07;2.70;;;17.90;86.20;;;;;;5096012;28;20055;-65
2023/06/14 00:30:25;;;;;;;8.50;3.33;;;17.80;86.20;;;;;;5095702;28;20044;-64
2023/06/14 00:32:51;;;;;;;6.75;3.00;;;17.80;86.20;;;;;;5095148;28;20109;-64
2023/06/14 00:35:17;;;;;;;4.30;2.83;;;17.80;86.30;;;;;;5095744;28;20067;-64
2023/06/14 00:37:44;;;;;;;5.80;3.10;;;17.70;86.40;;;;;;5095894;28;20059;-65
2023/06/14 00:40:10;;;;;;;8.45;2.97;;;17.70;86.50;;;;;;5095956;28;20048;-64
2023/06/14 00:42:36;;;;;;;5.82;2.90;;;17.60;86.60;;;;;;5095054;28;20101;-66
2023/06/14 00:45:03;;;;;;;6.70;2.88;;;17.60;86.70;;;;;;5095670;28;20074;-63
2023/06/14 00:47:29;;;;;;;4.75;2.80;;;17.50;86.80;;;;;;5095657;28;20044;-63
2023/06/14 00:49:56;;;;;;;5.25;2.88;;;17.50;87.00;;;;;;5095558;28;20117;-65
2023/06/14 00:52:24;;;;;;;8.70;2.88;;;17.40;87.20;;;;;;5094855;28;20452;-63
2023/06/14 00:54:50;;;;;;;6.47;2.80;;;17.40;87.30;;;;;;5095484;28;20040;-65
2023/06/14 00:57:17;;;;;;;4.70;2.92;;;17.30;87.60;;;;;;5095597;28;20129;-65
2023/06/14 00:59:44;;;;;;;6.90;3.05;;;17.30;87.70;;;;;;5095673;28;20051;-64
2023/06/14 01:02:14;;;;;;;6.93;2.88;;;17.20;87.80;;;;;;5094805;28;20055;-64
2023/06/14 01:04:45;;;;;;;5.50;2.70;;;17.10;87.90;;;;;;5095396;28;20212;-64
2023/06/14 01:07:48;;;;;;;5.60;2.85;;;17.10;88.00;;;;;;5095608;28;20062;-64
2023/06/14 01:10:37;;;;;;;4.55;2.88;;;17.10;88.20;;;;;;5094962;28;20468;-63
2023/06/14 01:13:32;;;;;;;4.55;2.80;;;17.00;88.80;;;;;;5094549;28;20106;-65
2023/06/14 01:15:59;;;;;;;7.18;2.80;;;16.90;88.80;;;;;;5095131;28;20044;-65
2023/06/14 01:18:25;;;;;;;3.63;2.67;;;16.90;88.90;;;;;;5095244;28;20044;-62
2023/06/14 01:20:54;;;;;;;4.15;2.65;;;16.80;89.00;;;;;;5093483;28;20055;-64
2023/06/14 01:23:22;;;;;;;8.95;3.10;;;16.70;89.50;;;;;;5094771;28;20096;-63
2023/06/14 01:25:52;;;;;;;9.70;3.45;;;16.70;89.80;;;;;;5094773;28;20391;-64
2023/06/14 01:28:20;;;;;;;4.93;2.50;;;16.60;89.70;;;;;;5094955;28;20047;-65
2023/06/14 01:30:53;;;;;;;5.50;2.95;;;16.70;90.00;;;;;;5094560;28;20056;-62
2023/06/14 01:33:21;;;;;;;5.63;2.95;;;16.60;90.00;;;;;;5093923;28;20447;-65
2023/06/14 01:35:50;;;;;;;6.68;2.92;;;16.60;90.10;;;;;;5094649;28;20044;-64
2023/06/14 01:38:20;;;;;;;4.70;2.97;;;16.50;90.10;;;;;;5094782;28;20044;-65
2023/06/14 01:40:47;;;;;;;4.57;2.60;;;16.50;90.20;;;;;;5094490;28;20479;-64
2023/06/14 01:43:15;;;;;;;6.78;2.60;;;16.50;90.30;;;;;;5092907;28;20080;-65
2023/06/14 01:45:44;;;;;;;6.40;2.70;;;16.40;90.30;;;;;;5094721;28;20048;-63
2023/06/14 01:48:10;;;;;;;5.53;2.90;;;16.40;90.50;;;;;;5093459;28;20066;-64
2023/06/14 01:50:36;;;;;;;4.70;2.63;;;16.30;90.80;;;;;;5094371;28;20052;-62
2023/06/14 01:53:08;;;;;;;4.97;2.92;;;16.30;90.60;;;;;;5092332;28;20086;-65
2023/06/14 01:55:37;;;;;;;4.70;2.78;;;16.20;90.80;;;;;;5094622;28;20056;-63
2023/06/14 01:58:04;;;;;;;5.85;2.70;;;16.20;90.80;;;;;;5094405;28;20675;-64
2023/06/14 02:00:31;;;;;;;6.68;2.72;;;16.20;91.00;;;;;;5094338;28;20082;-64
2023/06/14 02:02:57;;;;;;;5.65;2.75;;;16.20;91.00;;;;;;5093756;28;20674;-64
2023/06/14 02:05:24;;;;;;;5.47;3.25;;;16.10;91.20;;;;;;5094357;28;20052;-63
2023/06/14 02:07:50;;;;;;;3.92;2.78;;;16.10;91.20;;;;;;5094439;28;20135;-63
2023/06/14 02:10:17;;;;;;;4.45;2.60;;;16.10;91.30;;;;;;5094591;28;20052;-63
2023/06/14 02:12:44;;;;;;;5.85;3.03;;;16.00;91.40;;;;;;5093814;28;20059;-65
2023/06/14 02:15:16;;;;;;;6.20;2.63;;;16.00;91.50;;;;;;5094035;28;20052;-64
2023/06/14 02:17:43;;;;;;;5.55;2.60;;;16.00;91.60;;;;;;5094236;28;20063;-63
2023/06/14 02:20:10;;;;;;;6.60;2.95;;;15.90;91.70;;;;;;5093991;28;20062;-63
2023/06/14 02:22:36;;;;;;;4.50;2.63;;;15.90;91.80;;;;;;5093242;28;20052;-64
2023/06/14 02:25:03;;;;;;;7.68;3.30;;;15.80;91.90;;;;;;5093719;28;20051;-63
2023/06/14 02:27:29;;;;;;;7.35;2.42;;;15.80;92.10;;;;;;5093937;28;20471;-63
2023/06/14 02:29:55;;;;;;;4.63;2.53;;;15.70;92.10;;;;;;5093470;28;20052;-64
2023/06/14 02:32:22;;;;;;;4.57;2.60;;;15.80;92.20;;;;;;5092923;28;20479;-64
2023/06/14 02:34:49;;;;;;;6.70;2.78;;;15.80;92.40;;;;;;5093449;28;20044;-66
2023/06/14 02:37:16;;;;;;;4.60;2.83;;;15.70;92.30;;;;;;5093674;28;20048;-63
2023/06/14 02:39:42;;;;;;;6.72;2.92;;;15.70;92.60;;;;;;5093823;28;20471;-64
2023/06/14 02:42:10;;;;;;;4.85;2.70;;;15.70;92.70;;;;;;5092696;28;20377;-64
2023/06/14 02:44:36;;;;;;;7.90;3.10;;;15.60;92.70;;;;;;5093059;28;20411;-63
2023/06/14 02:47:04;;;;;;;6.80;3.00;;;15.70;92.80;;;;;;5091922;28;20047;-63
2023/06/14 02:49:30;;;;;;;5.10;2.92;;;15.60;93.10;;;;;;5093273;28;20059;-63
2023/06/14 02:51:57;;;;;;;4.72;2.85;;;15.60;93.10;;;;;;5092700;28;20044;-64
2023/06/14 02:54:23;;;;;;;4.88;2.72;;;15.50;93.50;;;;;;5093184;28;20044;-63
2023/06/14 02:56:50;;;;;;;5.85;2.97;;;15.50;93.30;;;;;;5093394;28;20040;-66
2023/06/14 02:59:16;;;;;;;7.50;3.00;;;15.50;93.30;;;;;;5093383;28;20044;-64
2023/06/14 03:01:43;;;;;;;5.32;2.83;;;15.40;93.60;;;;;;5092774;28;20036;-63
2023/06/14 03:04:09;;;;;;;4.50;2.90;;;15.40;93.60;;;;;;5093334;28;20048;-63
2023/06/14 03:06:36;;;;;;;5.70;3.13;;;15.40;93.90;;;;;;5093193;28;20048;-63
2023/06/14 03:09:09;;;;;;;8.18;3.10;;;15.40;94.10;;;;;;5092937;28;20047;-63
2023/06/14 03:11:35;;;;;;;6.93;2.75;;;15.30;94.20;;;;;;5092330;28;20065;-63
2023/06/14 03:14:04;;;;;;;5.60;2.72;;;15.30;94.40;;;;;;5092576;28;20435;-63
2023/06/14 03:16:31;;;;;;;5.00;2.80;;;15.20;94.50;;;;;;5092705;28;20044;-64
2023/06/14 03:18:57;;;;;;;7.05;3.50;;;15.20;95.00;;;;;;5092003;28;20052;-64
2023/06/14 03:21:24;;;;;;;6.60;3.15;;;15.20;94.80;;;;;;5091671;28;20387;-63
2023/06/14 03:23:51;;;;;;;5.97;2.80;;;15.20;95.00;;;;;;5092143;28;20109;-64
2023/06/14 03:26:17;;;;;;;4.90;2.88;;;15.20;95.10;;;;;;5092646;28;20060;-63
2023/06/14 03:28:47;;;;;;;5.20;2.78;;;15.10;95.10;;;;;;5092923;28;20048;-64
2023/06/14 03:31:13;;;;;;;9.02;3.10;;;15.10;95.40;;;;;;5091678;28;20464;-64
2023/06/14 03:33:40;;;;;;;3.88;2.72;;;15.10;95.50;;;;;;5091988;28;20410;-64
2023/06/14 03:36:06;;;;;;;5.07;2.92;;;15.10;95.60;;;;;;5092415;28;20051;-64
2023/06/14 03:38:33;;;;;;;3.40;2.45;;;15.10;95.70;;;;;;5092442;28;20058;-64
2023/06/14 03:40:59;;;;;;;6.40;2.80;;;15.10;95.80;;;;;;5091974;28;20117;-64
2023/06/14 03:43:25;;;;;;;6.95;3.15;;;15.10;95.90;;;;;;5092051;28;20055;-63
2023/06/14 03:45:51;;;;;;;6.05;3.33;;;15.10;96.00;;;;;;5092317;28;20051;-61
2023/06/14 03:48:18;;;;;;;5.30;2.95;;;15.10;96.20;;;;;;5092240;28;20052;-64
2023/06/14 03:50:44;;;;;;;4.63;3.28;;;15.10;96.20;;;;;;5090387;28;20051;-64
2023/06/14 03:53:10;;;;;;;5.38;2.70;;;15.20;96.30;;;;;;5092082;28;20056;-63
2023/06/14 03:55:37;;;;;;;5.72;3.13;;;15.10;96.40;;;;;;5092175;28;20074;-62
2023/06/14 03:58:04;;;;;;;5.38;3.10;;;15.10;96.50;;;;;;5092195;28;20047;-64
2023/06/14 04:00:32;;;;;;;5.38;3.22;;;15.10;96.50;;;;;;5092097;28;20040;-64
2023/06/14 04:02:58;;;;;;;5.10;3.17;;;15.20;96.70;;;;;;5090275;28;20048;-63
2023/06/14 04:05:26;;;;;;;4.97;2.97;;;15.20;96.80;;;;;;5091982;28;20044;-62
2023/06/14 04:07:55;;;;;;;6.10;3.22;;;15.30;96.80;;;;;;5091128;28;20055;-64
2023/06/14 04:10:21;;;;;;;5.20;3.08;;;15.30;96.80;;;;;;5092075;28;20048;-63
2023/06/14 04:12:49;;;;;;;5.50;2.90;;;15.30;97.00;;;;;;5091542;28;20063;-63
2023/06/14 04:15:15;;;;;;;7.10;2.92;;;15.20;97.10;;;;;;5092157;28;20052;-64
2023/06/14 04:17:41;;;;;;;5.40;2.67;;;15.30;97.10;;;;;;5092833;28;20040;-64
2023/06/14 04:20:09;;;;;;;6.80;3.10;;;15.30;97.10;;;;;;5090720;28;20149;-62
2023/06/14 04:22:36;;;;;;;6.47;3.10;;;15.40;97.30;;;;;;5091325;28;20055;-62
2023/06/14 04:25:03;;;;;;;3.63;2.55;;;15.30;97.40;;;;;;5090963;28;20064;-63
2023/06/14 04:27:31;;;;;;;5.80;3.28;;;15.40;97.40;;;;;;5092131;28;20059;-65
2023/06/14 04:29:57;;;;;;;4.95;2.90;;;15.40;97.40;;;;;;5091465;28;20079;-62
2023/06/14 04:32:25;;;;;;;5.57;3.05;;;15.40;97.60;;;;;;5091047;28;20044;-62
2023/06/14 04:35:03;;;;;;;6.00;3.00;;;15.50;97.70;;;;;;5091537;28;20094;-63
2023/06/14 04:37:30;;;;;;;5.90;3.30;;;15.50;97.60;;;;;;5091908;28;20036;-64
2023/06/14 04:39:57;;;;;;;3.85;2.88;;;15.50;97.70;;;;;;5091464;28;20077;-64
2023/06/14 04:42:29;;;;;;;4.65;2.90;;;15.60;97.70;;;;;;5091039;28;20040;-64
2023/06/14 04:44:57;;;;;;;5.15;2.95;;;15.60;97.70;;;;;;5084529;28;20474;-62
2023/06/14 04:47:29;;;;;;;8.63;3.42;;;15.70;97.70;;;;;;5080435;28;20062;-64
2023/06/14 04:49:57;;;;;;;7.13;3.13;;;15.70;97.80;;;;;;5081884;28;20522;-63
2023/06/14 04:52:26;;;;;;;5.85;3.17;;;15.80;97.80;;;;;;5079485;28;20051;-63
2023/06/14 04:54:54;;;;;;;5.00;3.40;;;16.00;97.90;;;;;;5080732;28;20063;-64
2023/06/14 04:57:21;;;;;;;7.22;3.80;;;16.60;97.60;;;;;;5079981;28;20037;-63
2023/06/14 04:59:48;;;;;;;4.40;3.03;;;16.90;97.20;;;;;;5081506;28;20064;-62
2023/06/14 05:02:14;;;;;;;8.45;3.00;;;17.70;96.50;;;;;;5077535;28;20044;-63
2023/06/14 05:04:41;;;;;;;4.63;3.00;;;18.50;95.80;;;;;;5080687;28;20048;-65
2023/06/14 05:07:09;;;;;;;6.35;3.50;;;19.20;94.50;;;;;;5080282;28;20045;-64
2023/06/14 05:09:36;;;;;;;5.50;3.10;;;19.80;94.00;;;;;;5084233;28;20052;-62
2023/06/14 05:12:03;;;;;;;4.47;3.40;;;20.40;93.20;;;;;;5084705;28;20062;-64
2023/06/14 05:14:29;;;;;;;7.30;3.20;;;21.10;92.60;;;;;;5074643;28;20056;-62
2023/06/14 05:16:55;;;;;;;6.93;3.47;;;21.60;92.00;;;;;;5074978;28;20516;-64
2023/06/14 05:19:22;;;;;;;6.15;3.10;;;21.80;91.50;;;;;;5074345;28;20402;-65
2023/06/14 05:21:48;;;;;;;5.03;3.13;;;21.90;91.30;;;;;;5076630;28;20040;-63
2023/06/14 05:24:15;;;;;;;6.50;3.38;;;22.50;91.10;;;;;;5094972;28;20496;-62
2023/06/14 05:26:41;;;;;;;4.28;3.33;;;23.00;90.40;;;;;;5095038;28;20105;-64
2023/06/14 05:29:07;;;;;;;7.63;3.53;;;23.10;90.00;;;;;;5094865;28;20059;-64
2023/06/14 05:31:33;;;;;;;5.05;3.33;;;23.60;90.00;;;;;;5093802;28;20117;-65
2023/06/14 05:34:00;;;;;;;4.65;3.17;;;24.00;88.70;;;;;;5094737;28;20116;-63
2023/06/14 05:36:27;;;;;;;8.18;3.42;;;24.20;87.60;;;;;;5094615;28;20048;-63
2023/06/14 05:39:02;;;;;;;5.97;3.20;;;24.30;87.20;;;;;;5094640;28;20543;-64
2023/06/14 05:41:29;;;;;;;4.03;3.20;;;24.40;86.80;;;;;;5094516;28;20039;-63
2023/06/14 05:43:56;;;;;;;6.38;3.15;;;24.40;85.80;;;;;;5094357;28;20043;-65
2023/06/14 05:46:28;;;;;;;5.97;3.70;;;24.30;86.20;;;;;;5094492;28;20380;-61
2023/06/14 05:48:54;;;;;;;6.38;3.60;;;24.30;85.60;;;;;;5094603;28;20047;-63
2023/06/14 05:51:21;;;;;;;5.60;3.60;;;24.40;85.40;;;;;;5093979;28;20040;-64
2023/06/14 05:53:48;;;;;;;5.80;3.38;;;24.50;85.20;;;;;;5094274;28;20067;-64
2023/06/14 05:56:17;;;;;;;6.47;3.60;;;24.80;84.50;;;;;;5094409;28;20044;-63
2023/06/14 05:58:47;;;;;;;4.90;3.20;;;25.00;83.70;;;;;;5094049;28;20368;-64
2023/06/14 06:01:14;;;;;;;8.30;3.40;;;25.00;84.10;;;;;;5094332;28;20083;-65
2023/06/14 06:03:45;;;;;;;4.93;3.13;;;25.50;83.70;;;;;;5094044;28;20396;-61
2023/06/14 06:06:12;;;;;;;7.57;3.50;;;25.90;83.50;;;;;;5094247;28;20048;-63
2023/06/14 06:08:39;;;;;;;7.47;3.75;;;25.70;82.10;;;;;;5093626;28;20051;-61
2023/06/14 06:11:05;;;;;;;6.63;3.70;;;25.90;82.40;;;;;;5091938;28;20044;-63
2023/06/14 06:13:32;;;;;;;5.30;3.13;;;26.00;82.00;;;;;;5094169;28;20102;-65
2023/06/14 06:15:58;;;;;;;6.03;3.40;;;26.10;81.60;;;;;;5093401;28;20109;-64
2023/06/14 06:18:25;;;;;;;5.00;3.15;;;25.90;81.20;;;;;;5094491;28;20097;-62
2023/06/14 06:20:51;;;;;;;4.18;3.10;;;26.10;80.50;;;;;;5092612;28;20060;-63
2023/06/14 06:23:17;;;;;;;4.32;3.22;;;26.20;80.60;;;;;;5094366;28;20051;-65
2023/06/14 06:25:43;;;;;;;5.18;2.90;;;25.90;79.60;;;;;;5094385;28;20048;-65
2023/06/14 06:28:10;;;;;;;6.55;3.25;;;25.90;81.00;;;;;;5094445;28;20340;-63
2023/06/14 06:30:37;;;;;;;4.07;2.70;;;26.40;81.30;;;;;;5093622;28;20121;-63
2023/06/14 06:33:03;;;;;;;7.45;2.80;;;26.70;79.90;;;;;;5093920;28;20582;-64
2023/06/14 06:35:30;;;;;;;5.78;3.08;;;27.10;80.00;;;;;;5094265;28;20047;-63
2023/06/14 06:37:57;;;;;;;6.72;2.80;;;27.00;78.70;;;;;;5094091;28;20463;-65
2023/06/14 06:40:23;;;;;;;6.28;2.80;;;26.90;78.90;;;;;;5093699;28;20047;-64
2023/06/14 06:42:50;;;;;;;5.18;2.88;;;27.40;78.90;;;;;;5093898;28;20047;-62
2023/06/14 06:45:16;;;;;;;5.20;2.88;;;27.10;77.90;;;;;;5093896;28;20040;-61
2023/06/14 06:47:42;;;;;;;3.47;2.35;;;27.20;78.40;;;;;;5093928;28;20043;-62
2023/06/14 06:50:09;;;;;;;4.15;2.67;;;27.10;78.30;;;;;;5094018;28;20126;-61
2023/06/14 06:52:35;;;;;;;6.38;4.57;;;27.50;78.50;;;;;;5093416;28;20126;-63
2023/06/14 06:55:02;;;;;;;5.95;2.88;;;27.50;78.20;;;;;;5094197;28;20044;-63
2023/06/14 06:57:29;;;;;;;6.57;2.90;;;26.90;77.50;;;;;;5093710;28;20105;-62
2023/06/14 06:59:55;;;;;;;4.82;2.92;;;26.70;77.90;;;;;;5093896;28;20040;-60
2023/06/14 07:02:21;;;;;;;5.22;2.65;;;25.80;78.50;;;;;;5094933;28;20123;-63
2023/06/14 07:04:48;;;;;;;4.13;2.70;;;25.40;79.50;;;;;;5093815;28;20058;-62
2023/06/14 07:07:14;;;;;;;3.72;2.70;;;25.20;79.80;;;;;;5093834;28;20058;-64
2023/06/14 07:09:41;;;;;;;4.57;2.92;;;24.80;79.90;;;;;;5093059;28;20113;-62
2023/06/14 07:12:08;;;;;;;5.00;2.90;;;24.50;80.40;;;;;;5092271;28;20052;-64
2023/06/14 07:14:34;;;;;;;3.85;2.83;;;24.30;80.70;;;;;;5093286;28;20471;-64
2023/06/14 07:17:00;;;;;;;4.10;2.80;;;24.50;81.10;;;;;;5093336;28;20109;-62
2023/06/14 07:19:27;;;;;;;5.03;2.95;;;24.40;81.00;;;;;;5092894;28;20048;-61
2023/06/14 07:21:53;;;;;;;4.63;3.13;;;24.30;80.70;;;;;;5093206;28;20510;-61
2023/06/14 07:24:21;;;;;;;8.15;3.55;;;24.30;80.80;;;;;;5093628;28;20044;-65
2023/06/14 07:26:48;;;;;;;7.10;2.97;;;24.10;81.20;;;;;;5093735;28;20052;-62
2023/06/14 07:29:16;;;;;;;5.15;2.80;;;24.10;81.20;;;;;;5093248;28;20063;-62
2023/06/14 07:31:43;;;;;;;7.30;2.80;;;24.10;81.40;;;;;;5092612;28;20063;-63
2023/06/14 07:34:09;;;;;;;6.32;3.25;;;24.20;81.40;;;;;;5093833;28;20052;-61
2023/06/14 07:36:36;;;;;;;3.55;2.83;;;24.50;81.20;;;;;;5092982;28;20059;-63
2023/06/14 07:39:03;;;;;;;4.25;2.35;;;24.70;80.80;;;;;;5092495;28;20058;-62
2023/06/14 07:41:29;;;;;;;7.60;3.03;;;24.60;80.30;;;;;;5092731;28;20048;-63
2023/06/14 07:43:56;;;;;;;4.35;2.88;;;24.70;80.20;;;;;;5092472;28;20105;-63
2023/06/14 07:46:22;;;;;;;7.40;3.00;;;24.80;80.40;;;;;;5092222;28;20468;-62
2023/06/14 07:48:48;;;;;;;6.28;2.92;;;24.80;80.20;;;;;;5092583;28;20449;-62
2023/06/14 07:51:15;;;;;;;8.50;3.10;;;24.70;80.40;;;;;;5092568;28;20052;-61
2023/06/14 07:53:42;;;;;;;4.80;2.50;;;24.70;79.70;;;;;;5092696;28;20071;-62
2023/06/14 07:56:08;;;;;;;6.00;2.72;;;24.80;79.90;;;;;;5092760;28;20044;-62
2023/06/14 07:58:34;;;;;;;4.55;2.83;;;24.80;80.20;;;;;;5092488;28;20113;-63
2023/06/14 08:01:05;;;;;;;4.90;2.50;;;24.80;80.00;;;;;;5092544;28;20106;-62
2023/06/14 08:03:32;;;;;;;5.28;2.70;;;24.70;80.10;;;;;;5092302;28;20050;-62
2023/06/14 08:05:58;;;;;;;10.95;3.42;;;24.70;79.50;;;;;;5092713;28;20055;-62
2023/06/14 08:08:24;;;;;;;5.05;2.60;;;24.50;79.70;;;;;;5092481;28;20048;-63
2023/06/14 08:10:51;;;;;;;5.43;2.50;;;24.50;79.90;;;;;;5092184;28;20048;-60
2023/06/14 08:13:17;;;;;;;9.13;2.80;;;24.70;79.80;;;;;;5092344;28;20070;-62
2023/06/14 08:15:43;;;;;;;13.38;7.90;;;24.70;79.40;;;;;;5092639;28;20060;-63
2023/06/14 08:18:10;;;;;;;7.55;3.60;;;24.60;79.80;;;;;;5092648;28;20048;-64
2023/06/14 08:20:36;;;;;;;5.22;2.58;;;24.60;79.40;;;;;;5091754;28;20419;-64
2023/06/14 08:23:03;;;;;;;6.90;2.70;;;24.90;79.00;;;;;;5092175;28;20044;-62
2023/06/14 08:25:30;;;;;;;3.95;2.50;;;24.60;78.90;;;;;;5092735;28;20105;-61
2023/06/14 08:27:58;;;;;;;5.50;2.60;;;24.80;79.20;;;;;;5092450;28;20467;-63
2023/06/14 08:30:25;;;;;;;4.53;2.40;;;24.80;78.20;;;;;;5091701;28;20056;-63
2023/06/14 08:32:51;;;;;;;27.35;4.55;;;24.60;78.70;;;;;;5091834;28;20486;-63
2023/06/14 08:35:18;;;;;;;62.45;7.82;;;24.80;79.20;;;;;;5092331;28;20052;-63
2023/06/14 08:37:45;;;;;;;8.20;3.20;;;24.90;79.20;;;;;;5091974;28;20052;-63
2023/06/14 08:40:22;;;;;;;56.85;6.85;;;25.00;78.90;;;;;;5092225;28;20048;-62
2023/06/14 08:42:54;;;;;;;5.07;2.30;;;25.20;78.10;;;;;;5092109;28;20463;-62
2023/06/14 08:45:21;;;;;;;4.55;2.30;;;25.10;76.70;;;;;;5095939;28;20040;-61
2023/06/14 08:47:57;;;;;;;5.95;2.40;;;25.00;76.80;;;;;;5096170;28;20464;-64
2023/06/14 08:50:31;;;;;;;3.55;2.50;;;25.10;76.80;;;;;;5096061;28;20056;-64
2023/06/14 08:53:02;;;;;;;29.30;4.57;;;25.00;76.70;;;;;;5095766;28;20051;-63
2023/06/14 08:55:29;;;;;;;;;;;25.10;76.70;;;;;;5096298;28;20044;-62
2023/06/14 08:57:57;;;;;;;11.20;3.22;;;25.00;77.10;;;;;;5095727;28;20485;-62
2023/06/14 09:00:25;;;;;;;3.20;2.40;;;24.80;76.90;;;;;;5095687;28;20048;-63
2023/06/14 09:02:57;;;;;;;4.25;2.60;;;24.80;76.80;;;;;;5095794;28;20481;-61
2023/06/14 09:05:24;;;;;;;3.47;2.20;;;25.00;77.40;;;;;;5096022;28;20044;-63
2023/06/14 09:07:51;;;;;;;3.50;2.10;;;25.10;77.50;;;;;;5095877;28;20056;-64
2023/06/14 09:10:17;;;;;;;4.63;2.42;;;25.20;77.30;;;;;;5095561;28;20051;-61
2023/06/14 09:12:43;;;;;;;5.45;2.40;;;25.10;77.50;;;;;;5094625;28;20056;-62
2023/06/14 09:15:10;;;;;;;5.45;2.63;;;25.20;77.70;;;;;;5095766;28;20384;-60
2023/06/14 09:17:36;;;;;;;5.18;2.40;;;25.20;77.80;;;;;;5095720;28;20044;-61
2023/06/14 09:20:09;;;;;;;3.83;2.53;;;25.30;77.50;;;;;;5095281;28;20044;-59
2023/06/14 09:22:36;;;;;;;4.70;2.30;;;25.40;76.40;;;;;;5094345;28;20428;-61
2023/06/14 09:25:02;;;;;;;5.78;2.55;;;25.30;76.90;;;;;;5095601;28;20440;-61
2023/06/14 09:27:29;;;;;;;3.65;2.40;;;25.30;76.70;;;;;;5095458;28;20059;-59
2023/06/14 09:29:55;;;;;;;2.90;2.28;;;25.50;77.30;;;;;;5094933;28;20052;-59
2023/06/14 09:32:22;;;;;;;3.25;2.72;;;25.40;76.20;;;;;;5095277;28;20483;-59
2023/06/14 09:34:49;;;;;;;6.03;2.30;;;25.60;75.90;;;;;;5095607;28;20044;-58
2023/06/14 09:37:31;;;;;;;4.18;2.50;;;25.40;75.10;;;;;;5094896;28;20460;-59
2023/06/14 09:39:58;;;;;;;6.43;2.35;;;25.20;74.60;;;;;;5094895;28;20051;-60
2023/06/14 09:42:25;;;;;;;5.25;2.42;;;24.90;74.80;;;;;;5095013;28;20097;-61
2023/06/14 09:44:53;;;;;;;4.22;2.22;;;24.60;75.20;;;;;;5095042;28;20101;-61
2023/06/14 09:47:21;;;;;;;3.83;2.63;;;24.50;76.10;;;;;;5095082;28;20058;-61
2023/06/14 09:49:48;;;;;;;5.85;2.28;;;24.70;76.50;;;;;;5094816;28;20058;-61
2023/06/14 09:52:19;;;;;;;59.70;7.47;;;24.80;76.30;;;;;;5094890;28;20044;-61
2023/06/14 09:54:46;;;;;;;3.22;2.35;;;24.90;75.60;;;;;;5094886;28;20051;-60
2023/06/14 09:57:15;;;;;;;5.85;2.40;;;25.10;75.90;;;;;;5094928;28;20433;-61
2023/06/14 09:59:44;;;;;;;4.20;2.13;;;25.20;75.30;;;;;;5094946;28;20044;-62
2023/06/14 10:02:24;;;;;;;3.92;2.13;;;25.30;75.60;;;;;;5094856;28;20056;-61
2023/06/14 10:05:03;;;;;;;4.93;2.40;;;25.30;75.40;;;;;;5094546;28;20457;-60
2023/06/14 10:07:34;;;;;;;8.38;2.90;;;25.30;75.00;;;;;;5094752;28;20055;-61
2023/06/14 10:10:01;;;;;;;5.35;2.30;;;25.20;73.90;;;;;;5094347;28;20052;-60
2023/06/14 10:12:28;;;;;;;4.38;2.00;;;25.20;74.40;;;;;;5094332;28;20058;-61
2023/06/14 10:14:55;;;;;;;4.10;2.03;;;25.50;75.20;;;;;;5094609;28;20113;-61
2023/06/14 10:17:33;;;;;;;3.88;2.40;;;25.60;75.00;;;;;;5094618;28;20044;-62
2023/06/14 10:20:33;;;;;;;3.47;2.28;;;25.60;74.20;;;;;;5073847;28;20048;-61
2023/06/14 10:23:06;;;;;;;3.13;2.00;;;25.40;73.10;;;;;;5084150;28;20055;-61
2023/06/14 10:25:33;;;;;;;3.25;1.90;;;25.30;73.50;;;;;;5094617;28;20052;-63
2023/06/14 10:28:17;;;;;;;4.88;2.55;;;25.10;73.90;;;;;;5094207;28;20055;-61
2023/06/14 10:31:05;;;;;;;3.85;1.90;;;25.20;73.80;;;;;;5093804;28;20063;-61
2023/06/14 10:33:33;;;;;;;4.55;1.98;;;25.20;73.50;;;;;;5094111;28;20052;-61
2023/06/14 10:36:21;;;;;;;3.38;1.90;;;25.10;74.00;;;;;;5093920;28;20070;-60
2023/06/14 10:39:07;;;;;;;4.68;2.20;;;25.30;74.50;;;;;;5093724;28;20054;-61
2023/06/14 10:41:38;;;;;;;3.78;1.80;;;25.30;74.90;;;;;;5093939;28;20068;-61
2023/06/14 10:44:13;;;;;;;8.20;2.05;;;25.30;73.90;;;;;;5093731;28;20105;-59
2023/06/14 10:46:55;;;;;;;7.35;2.05;;;25.30;72.70;;;;;;5094027;28;20044;-60
2023/06/14 10:49:48;;;;;;;3.00;2.00;;;25.40;74.00;;;;;;5092715;28;20055;-61
2023/06/14 10:52:19;;;;;;;2.40;1.70;;;25.40;72.30;;;;;;5093827;28;20052;-59
2023/06/14 10:55:10;;;;;;;5.55;1.95;;;25.40;72.30;;;;;;5093964;28;20121;-60
2023/06/14 10:57:38;;;;;;;6.20;1.98;;;25.40;72.30;;;;;;5093747;28;20098;-61
2023/06/14 11:00:16;;;;;;;2.90;1.90;;;25.40;72.40;;;;;;5093325;28;20048;-62
2023/06/14 11:03:16;;;;;;;4.05;1.90;;;25.40;72.20;;;;;;5093920;28;20085;-61
2023/06/14 11:05:57;;;;;;;3.40;1.95;;;25.60;71.80;;;;;;5093633;28;20051;-61
2023/06/14 11:08:45;;;;;;;4.00;1.73;;;25.60;71.90;;;;;;5093142;28;20052;-60
2023/06/14 11:11:13;;;;;;;4.00;1.80;;;25.80;71.00;;;;;;5093600;28;20059;-61
2023/06/14 11:13:41;;;;;;;3.75;2.00;;;25.80;72.20;;;;;;5092433;28;20068;-61
2023/06/14 11:16:12;;;;;;;3.38;1.80;;;25.80;71.30;;;;;;5093252;28;20376;-60
2023/06/14 11:18:39;;;;;;;5.70;2.00;;;25.90;72.10;;;;;;5093202;28;20447;-61
2023/06/14 11:21:06;;;;;;;5.55;2.00;;;25.90;71.20;;;;;;5093090;28;20487;-61
2023/06/14 11:23:32;;;;;;;3.90;2.00;;;25.90;71.20;;;;;;5093162;28;20048;-60
2023/06/14 11:25:58;;;;;;;4.40;2.10;;;25.80;71.60;;;;;;5093332;28;20102;-62
2023/06/14 11:28:25;;;;;;;7.70;4.07;;;25.90;72.30;;;;;;5092848;28;20378;-61
2023/06/14 11:31:01;;;;;;;6.68;2.38;;;26.00;72.00;;;;;;5092372;28;20054;-60
2023/06/14 11:33:27;;;;;;;13.02;2.45;;;26.10;71.20;;;;;;5092291;28;20079;-61
2023/06/14 11:35:54;;;;;;;6.47;2.42;;;26.00;71.40;;;;;;5092444;28;20047;-59
2023/06/14 11:38:20;;;;;;;4.38;2.67;;;26.00;71.30;;;;;;5091920;28;20048;-61
2023/06/14 11:40:46;;;;;;;30.45;4.95;;;26.00;71.70;;;;;;5092453;28;20105;-61
2023/06/14 11:43:14;;;;;;;3.22;2.00;;;26.10;70.90;;;;;;5092225;28;20113;-60
2023/06/14 11:45:40;;;;;;;3.65;2.15;;;25.80;70.40;;;;;;5092366;28;20040;-61
2023/06/14 11:48:06;;;;;;;5.05;1.90;;;26.00;70.80;;;;;;5092304;28;20062;-60
2023/06/14 11:50:38;;;;;;;4.78;1.92;;;26.00;71.00;;;;;;5091576;28;20071;-61
2023/06/14 11:53:09;;;;;;;4.50;2.10;;;26.00;69.50;;;;;;5091771;28;20044;-61
2023/06/14 11:55:39;;;;;;;7.50;2.20;;;26.10;70.00;;;;;;5092256;28;20048;-59
2023/06/14 11:58:05;;;;;;;10.60;2.75;;;26.10;69.90;;;;;;5092063;28;20055;-59
2023/06/14 12:00:32;;;;;;;6.95;2.00;;;26.10;70.60;;;;;;5091688;28;20081;-57
2023/06/14 12:02:59;;;;;;;4.38;2.35;;;26.00;70.30;;;;;;5091981;28;20040;-59
2023/06/14 12:05:28;;;;;;;4.22;2.10;;;25.80;69.90;;;;;;5092040;28;20412;-56
2023/06/14 12:08:03;;;;;;;7.95;2.10;;;25.70;70.20;;;;;;5092072;28;20381;-61
2023/06/14 12:10:29;;;;;;;5.35;2.15;;;25.60;71.20;;;;;;5091581;28;20440;-61
2023/06/14 12:12:59;;;;;;;5.88;2.30;;;25.60;71.20;;;;;;5091718;28;20054;-59
2023/06/14 12:15:31;;;;;;;2.65;2.00;;;25.80;70.90;;;;;;5092015;28;20063;-60
2023/06/14 12:17:58;;;;;;;4.15;2.05;;;25.90;70.40;;;;;;5090798;28;20070;-60
2023/06/14 12:20:29;;;;;;;3.42;2.00;;;25.90;70.20;;;;;;5090859;28;20496;-60
2023/06/14 12:22:58;;;;;;;5.20;2.20;;;26.00;69.90;;;;;;5091563;28;20048;-61
2023/06/14 12:25:36;;;;;;;4.43;2.63;;;25.90;70.70;;;;;;5091781;28;20044;-61
2023/06/14 12:28:09;;;;;;;5.50;2.10;;;25.90;71.10;;;;;;5091852;28;20056;-60
2023/06/14 12:30:37;;;;;;;3.83;2.10;;;26.00;70.50;;;;;;5051027;28;1165639;-60
2023/06/14 12:33:05;;;;;;;3.55;1.83;;;25.80;70.90;;;;;;5092345;28;20051;-61
2023/06/14 12:35:31;;;;;;;4.50;2.28;;;25.80;71.90;;;;;;5092484;28;20044;-62
2023/06/14 12:37:58;;;;;;;5.38;2.13;;;25.90;71.90;;;;;;5092670;28;20052;-59
2023/06/14 12:40:24;;;;;;;5.78;4.43;;;26.00;72.20;;;;;;5092107;28;20048;-61
2023/06/14 12:42:50;;;;;;;6.47;3.63;;;26.20;71.80;;;;;;5092178;28;20036;-61
2023/06/14 12:45:17;;;;;;;3.90;2.20;;;26.00;71.40;;;;;;5092450;28;20121;-61
2023/06/14 12:47:43;;;;;;;4.53;1.95;;;25.90;71.90;;;;;;5092631;28;20048;-61
2023/06/14 12:50:10;;;;;;;4.82;2.00;;;26.10;72.00;;;;;;5092345;28;20055;-61
2023/06/14 12:52:36;;;;;;;2.72;2.08;;;26.00;72.00;;;;;;5092246;28;20056;-61